sensor_id;sensor_type;location;lat;lon;timestamp;P1;durP1;ratioP1;P2;durP2;ratioP2
11151;SDS011;5630;49.342;10.802;2023-07-28T00:00:14;5.33;;;4.83;;
11151;SDS011;5630;49.342;10.802;2023-07-28T00:02:39;5.10;;;4.20;;
11151;SDS011;5630;49.342;10.802;2023-07-28T00:05:05;5.50;;;4.67;;
11151;SDS011;5630;49.342;10.802;2023-07-28T00:07:31;5.17;;;4.57;;
11151;SDS011;5630;49.342;10.802;2023-07-28T00:09:59;5.50;;;4.97;;
11151;SDS011;5630;49.342;10.802;2023-07-28T00:12:24;5.03;;;4.53;;
11151;SDS011;5630;49.342;10.802;2023-07-28T00:14:50;4.90;;;4.43;;
11151;SDS011;5630;49.342;10.802;2023-07-28T00:17:15;6.03;;;4.60;;
11151;SDS011;5630;49.342;10.802;2023-07-28T00:19:41;6.63;;;4.70;;
11151;SDS011;5630;49.342;10.802;2023-07-28T00:22:07;5.30;;;4.53;;
11151;SDS011;5630;49.342;10.802;2023-07-28T00:24:32;4.73;;;4.30;;
11151;SDS011;5630;49.342;10.802;2023-07-28T00:26:58;5.23;;;4.73;;
11151;SDS011;5630;49.342;10.802;2023-07-28T00:29:23;5.10;;;4.47;;
11151;SDS011;5630;49.342;10.802;2023-07-28T00:31:49;5.60;;;4.00;;
11151;SDS011;5630;49.342;10.802;2023-07-28T00:34:14;5.63;;;4.47;;
11151;SDS011;5630;49.342;10.802;2023-07-28T00:36:40;7.03;;;4.40;;
11151;SDS011;5630;49.342;10.802;2023-07-28T00:39:05;4.67;;;4.20;;
11151;SDS011;5630;49.342;10.802;2023-07-28T00:41:32;4.97;;;4.47;;
11151;SDS011;5630;49.342;10.802;2023-07-28T00:43:57;6.47;;;4.43;;
11151;SDS011;5630;49.342;10.802;2023-07-28T00:46:23;6.37;;;5.10;;
11151;SDS011;5630;49.342;10.802;2023-07-28T00:48:49;8.40;;;4.60;;
11151;SDS011;5630;49.342;10.802;2023-07-28T00:51:14;7.00;;;4.30;;
11151;SDS011;5630;49.342;10.802;2023-07-28T00:53:41;6.70;;;4.37;;
11151;SDS011;5630;49.342;10.802;2023-07-28T00:56:07;4.50;;;4.10;;
11151;SDS011;5630;49.342;10.802;2023-07-28T00:58:32;5.40;;;4.90;;
11151;SDS011;5630;49.342;10.802;2023-07-28T01:00:58;5.80;;;4.50;;
11151;SDS011;5630;49.342;10.802;2023-07-28T01:03:24;5.07;;;4.57;;
11151;SDS011;5630;49.342;10.802;2023-07-28T01:06:07;6.63;;;5.00;;
11151;SDS011;5630;49.342;10.802;2023-07-28T01:08:54;5.17;;;4.53;;
11151;SDS011;5630;49.342;10.802;2023-07-28T01:11:25;5.47;;;4.40;;
11151;SDS011;5630;49.342;10.802;2023-07-28T01:13:50;9.03;;;4.80;;
11151;SDS011;5630;49.342;10.802;2023-07-28T01:16:16;6.20;;;4.80;;
11151;SDS011;5630;49.342;10.802;2023-07-28T01:18:41;6.97;;;5.00;;
11151;SDS011;5630;49.342;10.802;2023-07-28T01:21:08;6.73;;;5.00;;
11151;SDS011;5630;49.342;10.802;2023-07-28T01:23:41;5.50;;;4.70;;
11151;SDS011;5630;49.342;10.802;2023-07-28T01:26:15;6.40;;;4.60;;
11151;SDS011;5630;49.342;10.802;2023-07-28T01:28:42;5.93;;;4.50;;
11151;SDS011;5630;49.342;10.802;2023-07-28T01:31:10;6.50;;;4.93;;
11151;SDS011;5630;49.342;10.802;2023-07-28T01:33:35;5.10;;;4.37;;
11151;SDS011;5630;49.342;10.802;2023-07-28T01:36:02;5.60;;;4.97;;
11151;SDS011;5630;49.342;10.802;2023-07-28T01:38:28;4.90;;;4.47;;
11151;SDS011;5630;49.342;10.802;2023-07-28T01:40:54;7.43;;;4.97;;
11151;SDS011;5630;49.342;10.802;2023-07-28T01:43:20;7.93;;;5.57;;
11151;SDS011;5630;49.342;10.802;2023-07-28T01:45:45;6.43;;;4.93;;
11151;SDS011;5630;49.342;10.802;2023-07-28T01:48:11;6.77;;;5.47;;
11151;SDS011;5630;49.342;10.802;2023-07-28T01:50:37;6.87;;;5.77;;
11151;SDS011;5630;49.342;10.802;2023-07-28T01:53:04;5.50;;;4.67;;
11151;SDS011;5630;49.342;10.802;2023-07-28T01:55:30;5.57;;;5.07;;
11151;SDS011;5630;49.342;10.802;2023-07-28T01:57:57;5.43;;;4.93;;
11151;SDS011;5630;49.342;10.802;2023-07-28T02:00:24;5.13;;;4.70;;
11151;SDS011;5630;49.342;10.802;2023-07-28T02:02:49;5.87;;;5.27;;
11151;SDS011;5630;49.342;10.802;2023-07-28T02:05:16;6.60;;;5.30;;
11151;SDS011;5630;49.342;10.802;2023-07-28T02:07:42;5.50;;;4.70;;
11151;SDS011;5630;49.342;10.802;2023-07-28T02:10:07;5.37;;;4.87;;
11151;SDS011;5630;49.342;10.802;2023-07-28T02:12:33;6.40;;;4.63;;
11151;SDS011;5630;49.342;10.802;2023-07-28T02:14:59;6.93;;;5.57;;
11151;SDS011;5630;49.342;10.802;2023-07-28T02:17:24;7.03;;;4.50;;
11151;SDS011;5630;49.342;10.802;2023-07-28T02:19:50;6.27;;;4.97;;
11151;SDS011;5630;49.342;10.802;2023-07-28T02:22:16;6.03;;;5.40;;
11151;SDS011;5630;49.342;10.802;2023-07-28T02:24:41;5.30;;;4.80;;
11151;SDS011;5630;49.342;10.802;2023-07-28T02:27:07;6.23;;;4.87;;
11151;SDS011;5630;49.342;10.802;2023-07-28T02:29:32;6.80;;;5.00;;
11151;SDS011;5630;49.342;10.802;2023-07-28T02:31:58;5.53;;;5.00;;
11151;SDS011;5630;49.342;10.802;2023-07-28T02:34:23;5.07;;;4.57;;
11151;SDS011;5630;49.342;10.802;2023-07-28T02:36:49;6.17;;;4.70;;
11151;SDS011;5630;49.342;10.802;2023-07-28T02:39:15;6.53;;;5.17;;
11151;SDS011;5630;49.342;10.802;2023-07-28T02:41:40;5.20;;;4.70;;
11151;SDS011;5630;49.342;10.802;2023-07-28T02:44:06;5.43;;;4.63;;
11151;SDS011;5630;49.342;10.802;2023-07-28T02:46:31;4.70;;;4.30;;
11151;SDS011;5630;49.342;10.802;2023-07-28T02:48:57;6.97;;;4.87;;
11151;SDS011;5630;49.342;10.802;2023-07-28T02:51:22;5.03;;;4.63;;
11151;SDS011;5630;49.342;10.802;2023-07-28T02:53:48;6.13;;;5.10;;
11151;SDS011;5630;49.342;10.802;2023-07-28T02:56:13;7.27;;;5.23;;
11151;SDS011;5630;49.342;10.802;2023-07-28T02:58:39;5.20;;;4.70;;
11151;SDS011;5630;49.342;10.802;2023-07-28T03:01:04;5.67;;;5.17;;
11151;SDS011;5630;49.342;10.802;2023-07-28T03:03:30;5.17;;;4.77;;
11151;SDS011;5630;49.342;10.802;2023-07-28T03:05:55;5.00;;;4.60;;
11151;SDS011;5630;49.342;10.802;2023-07-28T03:08:21;5.97;;;5.40;;
11151;SDS011;5630;49.342;10.802;2023-07-28T03:10:47;9.33;;;5.10;;
11151;SDS011;5630;49.342;10.802;2023-07-28T03:13:12;5.60;;;5.10;;
11151;SDS011;5630;49.342;10.802;2023-07-28T03:15:38;6.10;;;5.10;;
11151;SDS011;5630;49.342;10.802;2023-07-28T03:18:03;5.40;;;4.80;;
11151;SDS011;5630;49.342;10.802;2023-07-28T03:20:29;5.93;;;5.30;;
11151;SDS011;5630;49.342;10.802;2023-07-28T03:22:55;6.03;;;5.13;;
11151;SDS011;5630;49.342;10.802;2023-07-28T03:25:20;5.60;;;5.10;;
11151;SDS011;5630;49.342;10.802;2023-07-28T03:27:46;5.07;;;4.57;;
11151;SDS011;5630;49.342;10.802;2023-07-28T03:30:12;6.50;;;4.87;;
11151;SDS011;5630;49.342;10.802;2023-07-28T03:32:39;5.87;;;5.20;;
11151;SDS011;5630;49.342;10.802;2023-07-28T03:35:04;5.83;;;5.20;;
11151;SDS011;5630;49.342;10.802;2023-07-28T03:37:31;6.53;;;5.30;;
11151;SDS011;5630;49.342;10.802;2023-07-28T03:39:57;6.17;;;5.07;;
11151;SDS011;5630;49.342;10.802;2023-07-28T03:42:23;5.23;;;4.63;;
11151;SDS011;5630;49.342;10.802;2023-07-28T03:44:49;5.60;;;5.10;;
11151;SDS011;5630;49.342;10.802;2023-07-28T03:47:15;7.03;;;5.07;;
11151;SDS011;5630;49.342;10.802;2023-07-28T03:49:40;6.27;;;5.20;;
11151;SDS011;5630;49.342;10.802;2023-07-28T03:52:06;5.30;;;4.80;;
11151;SDS011;5630;49.342;10.802;2023-07-28T03:54:31;7.00;;;4.90;;
11151;SDS011;5630;49.342;10.802;2023-07-28T03:56:57;7.53;;;5.70;;
11151;SDS011;5630;49.342;10.802;2023-07-28T03:59:22;5.97;;;5.07;;
11151;SDS011;5630;49.342;10.802;2023-07-28T04:01:48;6.90;;;5.67;;
11151;SDS011;5630;49.342;10.802;2023-07-28T04:04:13;5.97;;;5.40;;
11151;SDS011;5630;49.342;10.802;2023-07-28T04:06:43;7.23;;;4.90;;
11151;SDS011;5630;49.342;10.802;2023-07-28T04:09:15;5.77;;;5.27;;
11151;SDS011;5630;49.342;10.802;2023-07-28T04:11:41;5.40;;;4.90;;
11151;SDS011;5630;49.342;10.802;2023-07-28T04:14:07;6.30;;;5.30;;
11151;SDS011;5630;49.342;10.802;2023-07-28T04:16:33;6.80;;;5.23;;
11151;SDS011;5630;49.342;10.802;2023-07-28T04:18:59;5.70;;;4.97;;
11151;SDS011;5630;49.342;10.802;2023-07-28T04:21:25;5.87;;;5.27;;
11151;SDS011;5630;49.342;10.802;2023-07-28T04:23:50;6.13;;;5.53;;
11151;SDS011;5630;49.342;10.802;2023-07-28T04:26:16;6.80;;;5.63;;
11151;SDS011;5630;49.342;10.802;2023-07-28T04:28:42;6.80;;;6.03;;
11151;SDS011;5630;49.342;10.802;2023-07-28T04:31:08;5.97;;;5.37;;
11151;SDS011;5630;49.342;10.802;2023-07-28T04:33:34;6.33;;;5.70;;
11151;SDS011;5630;49.342;10.802;2023-07-28T04:36:02;8.93;;;5.70;;
11151;SDS011;5630;49.342;10.802;2023-07-28T04:38:27;5.93;;;5.00;;
11151;SDS011;5630;49.342;10.802;2023-07-28T04:40:53;6.67;;;5.83;;
11151;SDS011;5630;49.342;10.802;2023-07-28T04:43:19;7.53;;;5.90;;
11151;SDS011;5630;49.342;10.802;2023-07-28T04:45:45;6.97;;;6.33;;
11151;SDS011;5630;49.342;10.802;2023-07-28T04:48:10;9.27;;;7.27;;
11151;SDS011;5630;49.342;10.802;2023-07-28T04:50:36;7.57;;;6.77;;
11151;SDS011;5630;49.342;10.802;2023-07-28T04:53:02;7.03;;;6.33;;
11151;SDS011;5630;49.342;10.802;2023-07-28T04:55:27;9.33;;;6.70;;
11151;SDS011;5630;49.342;10.802;2023-07-28T04:57:53;6.90;;;6.23;;
11151;SDS011;5630;49.342;10.802;2023-07-28T05:00:20;6.97;;;6.20;;
11151;SDS011;5630;49.342;10.802;2023-07-28T05:02:45;7.20;;;6.50;;
11151;SDS011;5630;49.342;10.802;2023-07-28T05:05:11;10.33;;;7.67;;
11151;SDS011;5630;49.342;10.802;2023-07-28T05:07:36;7.03;;;6.33;;
11151;SDS011;5630;49.342;10.802;2023-07-28T05:10:02;10.80;;;6.60;;
11151;SDS011;5630;49.342;10.802;2023-07-28T05:12:27;7.47;;;6.20;;
11151;SDS011;5630;49.342;10.802;2023-07-28T05:14:53;7.13;;;5.97;;
11151;SDS011;5630;49.342;10.802;2023-07-28T05:17:19;6.83;;;6.17;;
11151;SDS011;5630;49.342;10.802;2023-07-28T05:19:44;7.67;;;6.87;;
11151;SDS011;5630;49.342;10.802;2023-07-28T05:22:10;6.77;;;6.07;;
11151;SDS011;5630;49.342;10.802;2023-07-28T05:24:35;8.27;;;6.63;;
11151;SDS011;5630;49.342;10.802;2023-07-28T05:27:01;9.03;;;6.40;;
11151;SDS011;5630;49.342;10.802;2023-07-28T05:29:27;7.73;;;6.17;;
11151;SDS011;5630;49.342;10.802;2023-07-28T05:31:52;9.70;;;6.30;;
11151;SDS011;5630;49.342;10.802;2023-07-28T05:34:18;8.13;;;6.17;;
11151;SDS011;5630;49.342;10.802;2023-07-28T05:36:43;7.03;;;5.97;;
11151;SDS011;5630;49.342;10.802;2023-07-28T05:39:09;7.13;;;5.70;;
11151;SDS011;5630;49.342;10.802;2023-07-28T05:41:36;6.33;;;5.70;;
11151;SDS011;5630;49.342;10.802;2023-07-28T05:44:02;6.33;;;5.73;;
11151;SDS011;5630;49.342;10.802;2023-07-28T05:46:28;6.63;;;5.97;;
11151;SDS011;5630;49.342;10.802;2023-07-28T05:48:54;8.03;;;6.70;;
11151;SDS011;5630;49.342;10.802;2023-07-28T05:51:20;9.70;;;6.73;;
11151;SDS011;5630;49.342;10.802;2023-07-28T05:53:46;8.63;;;6.23;;
11151;SDS011;5630;49.342;10.802;2023-07-28T05:56:12;8.90;;;6.23;;
11151;SDS011;5630;49.342;10.802;2023-07-28T05:58:38;10.67;;;6.40;;
11151;SDS011;5630;49.342;10.802;2023-07-28T06:01:03;8.73;;;6.30;;
11151;SDS011;5630;49.342;10.802;2023-07-28T06:03:29;6.27;;;5.67;;
11151;SDS011;5630;49.342;10.802;2023-07-28T06:05:55;9.73;;;6.13;;
11151;SDS011;5630;49.342;10.802;2023-07-28T06:08:21;7.33;;;6.60;;
11151;SDS011;5630;49.342;10.802;2023-07-28T06:10:47;4.37;;;2.80;;
11151;SDS011;5630;49.342;10.802;2023-07-28T06:13:13;4.90;;;2.90;;
11151;SDS011;5630;49.342;10.802;2023-07-28T06:15:41;5.43;;;2.90;;
11151;SDS011;5630;49.342;10.802;2023-07-28T06:18:07;3.00;;;2.70;;
11151;SDS011;5630;49.342;10.802;2023-07-28T06:20:33;6.40;;;3.43;;
11151;SDS011;5630;49.342;10.802;2023-07-28T06:22:59;6.33;;;4.30;;
11151;SDS011;5630;49.342;10.802;2023-07-28T06:25:25;5.00;;;3.37;;
11151;SDS011;5630;49.342;10.802;2023-07-28T06:27:51;7.03;;;5.30;;
11151;SDS011;5630;49.342;10.802;2023-07-28T06:30:17;7.77;;;5.00;;
11151;SDS011;5630;49.342;10.802;2023-07-28T06:32:43;7.17;;;4.70;;
11151;SDS011;5630;49.342;10.802;2023-07-28T06:35:08;5.50;;;5.00;;
11151;SDS011;5630;49.342;10.802;2023-07-28T06:37:34;7.23;;;5.73;;
11151;SDS011;5630;49.342;10.802;2023-07-28T06:40:04;6.60;;;5.97;;
11151;SDS011;5630;49.342;10.802;2023-07-28T06:42:32;7.90;;;5.53;;
11151;SDS011;5630;49.342;10.802;2023-07-28T06:44:59;6.10;;;5.50;;
11151;SDS011;5630;49.342;10.802;2023-07-28T06:47:27;8.10;;;5.10;;
11151;SDS011;5630;49.342;10.802;2023-07-28T06:49:54;9.00;;;6.33;;
11151;SDS011;5630;49.342;10.802;2023-07-28T06:52:19;9.57;;;6.17;;
11151;SDS011;5630;49.342;10.802;2023-07-28T06:54:45;6.07;;;5.47;;
11151;SDS011;5630;49.342;10.802;2023-07-28T06:57:12;8.37;;;6.60;;
11151;SDS011;5630;49.342;10.802;2023-07-28T06:59:38;6.80;;;6.17;;
11151;SDS011;5630;49.342;10.802;2023-07-28T07:02:03;6.50;;;5.90;;
11151;SDS011;5630;49.342;10.802;2023-07-28T07:04:30;7.93;;;6.20;;
11151;SDS011;5630;49.342;10.802;2023-07-28T07:06:55;6.27;;;5.67;;
11151;SDS011;5630;49.342;10.802;2023-07-28T07:09:21;7.40;;;5.43;;
11151;SDS011;5630;49.342;10.802;2023-07-28T07:11:46;6.20;;;5.40;;
11151;SDS011;5630;49.342;10.802;2023-07-28T07:14:12;7.83;;;5.73;;
11151;SDS011;5630;49.342;10.802;2023-07-28T07:16:37;8.73;;;6.23;;
11151;SDS011;5630;49.342;10.802;2023-07-28T07:19:03;7.40;;;6.63;;
11151;SDS011;5630;49.342;10.802;2023-07-28T07:21:29;9.43;;;6.00;;
11151;SDS011;5630;49.342;10.802;2023-07-28T07:23:54;8.07;;;6.33;;
11151;SDS011;5630;49.342;10.802;2023-07-28T07:26:20;6.40;;;5.63;;
11151;SDS011;5630;49.342;10.802;2023-07-28T07:28:45;7.50;;;6.00;;
11151;SDS011;5630;49.342;10.802;2023-07-28T07:31:14;6.93;;;5.43;;
11151;SDS011;5630;49.342;10.802;2023-07-28T07:33:40;6.30;;;5.70;;
11151;SDS011;5630;49.342;10.802;2023-07-28T07:36:16;6.70;;;5.73;;
11151;SDS011;5630;49.342;10.802;2023-07-28T07:38:43;5.63;;;5.13;;
11151;SDS011;5630;49.342;10.802;2023-07-28T07:41:12;6.50;;;5.83;;
11151;SDS011;5630;49.342;10.802;2023-07-28T07:43:44;7.70;;;6.30;;
11151;SDS011;5630;49.342;10.802;2023-07-28T07:46:09;6.57;;;5.93;;
11151;SDS011;5630;49.342;10.802;2023-07-28T07:48:35;8.40;;;6.60;;
11151;SDS011;5630;49.342;10.802;2023-07-28T07:51:01;8.03;;;5.80;;
11151;SDS011;5630;49.342;10.802;2023-07-28T07:53:26;9.93;;;6.67;;
11151;SDS011;5630;49.342;10.802;2023-07-28T07:55:52;7.27;;;6.33;;
11151;SDS011;5630;49.342;10.802;2023-07-28T07:58:17;8.57;;;7.30;;
11151;SDS011;5630;49.342;10.802;2023-07-28T08:00:43;8.77;;;7.90;;
11151;SDS011;5630;49.342;10.802;2023-07-28T08:03:09;8.63;;;7.87;;
11151;SDS011;5630;49.342;10.802;2023-07-28T08:05:35;7.70;;;6.87;;
11151;SDS011;5630;49.342;10.802;2023-07-28T08:08:01;11.00;;;7.77;;
11151;SDS011;5630;49.342;10.802;2023-07-28T08:10:26;8.17;;;7.43;;
11151;SDS011;5630;49.342;10.802;2023-07-28T08:12:52;8.20;;;7.50;;
11151;SDS011;5630;49.342;10.802;2023-07-28T08:15:18;8.30;;;7.60;;
11151;SDS011;5630;49.342;10.802;2023-07-28T08:17:44;8.30;;;7.60;;
11151;SDS011;5630;49.342;10.802;2023-07-28T08:20:10;8.40;;;7.70;;
11151;SDS011;5630;49.342;10.802;2023-07-28T08:22:35;8.43;;;7.63;;
11151;SDS011;5630;49.342;10.802;2023-07-28T08:25:01;8.17;;;7.10;;
11151;SDS011;5630;49.342;10.802;2023-07-28T08:27:27;8.07;;;7.37;;
11151;SDS011;5630;49.342;10.802;2023-07-28T08:29:52;7.30;;;6.60;;
11151;SDS011;5630;49.342;10.802;2023-07-28T08:32:18;6.63;;;6.03;;
11151;SDS011;5630;49.342;10.802;2023-07-28T08:34:43;5.90;;;5.40;;
11151;SDS011;5630;49.342;10.802;2023-07-28T08:37:09;5.53;;;4.97;;
11151;SDS011;5630;49.342;10.802;2023-07-28T08:39:34;6.50;;;4.80;;
11151;SDS011;5630;49.342;10.802;2023-07-28T08:42:00;6.30;;;4.40;;
11151;SDS011;5630;49.342;10.802;2023-07-28T08:44:33;5.93;;;4.50;;
11151;SDS011;5630;49.342;10.802;2023-07-28T08:47:00;4.37;;;3.97;;
11151;SDS011;5630;49.342;10.802;2023-07-28T08:49:26;4.40;;;3.60;;
11151;SDS011;5630;49.342;10.802;2023-07-28T08:51:52;3.73;;;3.43;;
11151;SDS011;5630;49.342;10.802;2023-07-28T08:54:22;3.90;;;3.60;;
11151;SDS011;5630;49.342;10.802;2023-07-28T08:56:48;4.10;;;3.80;;
11151;SDS011;5630;49.342;10.802;2023-07-28T08:59:20;3.40;;;3.10;;
11151;SDS011;5630;49.342;10.802;2023-07-28T09:01:54;3.23;;;2.93;;
11151;SDS011;5630;49.342;10.802;2023-07-28T09:04:21;4.43;;;3.00;;
11151;SDS011;5630;49.342;10.802;2023-07-28T09:06:47;4.30;;;2.97;;
11151;SDS011;5630;49.342;10.802;2023-07-28T09:09:14;3.47;;;3.10;;
11151;SDS011;5630;49.342;10.802;2023-07-28T09:11:43;4.70;;;2.97;;
11151;SDS011;5630;49.342;10.802;2023-07-28T09:14:11;2.93;;;2.60;;
11151;SDS011;5630;49.342;10.802;2023-07-28T09:16:37;7.53;;;3.00;;
11151;SDS011;5630;49.342;10.802;2023-07-28T09:19:06;3.00;;;2.60;;
11151;SDS011;5630;49.342;10.802;2023-07-28T09:21:33;2.80;;;2.60;;
11151;SDS011;5630;49.342;10.802;2023-07-28T09:24:05;3.67;;;2.30;;
11151;SDS011;5630;49.342;10.802;2023-07-28T09:26:42;2.70;;;2.50;;
11151;SDS011;5630;49.342;10.802;2023-07-28T09:29:19;2.77;;;2.30;;
11151;SDS011;5630;49.342;10.802;2023-07-28T09:31:46;2.90;;;2.37;;
11151;SDS011;5630;49.342;10.802;2023-07-28T09:34:13;2.83;;;2.60;;
11151;SDS011;5630;49.342;10.802;2023-07-28T09:36:55;3.13;;;2.27;;
11151;SDS011;5630;49.342;10.802;2023-07-28T09:39:24;3.80;;;2.80;;
11151;SDS011;5630;49.342;10.802;2023-07-28T09:41:50;3.80;;;2.80;;
11151;SDS011;5630;49.342;10.802;2023-07-28T09:44:16;13.70;;;9.73;;
11151;SDS011;5630;49.342;10.802;2023-07-28T09:46:49;3.10;;;2.80;;
11151;SDS011;5630;49.342;10.802;2023-07-28T09:49:16;3.20;;;2.80;;
11151;SDS011;5630;49.342;10.802;2023-07-28T09:52:08;2.60;;;2.37;;
11151;SDS011;5630;49.342;10.802;2023-07-28T09:54:38;2.60;;;2.40;;
11151;SDS011;5630;49.342;10.802;2023-07-28T09:57:06;3.53;;;2.33;;
11151;SDS011;5630;49.342;10.802;2023-07-28T09:59:37;3.03;;;2.30;;
11151;SDS011;5630;49.342;10.802;2023-07-28T10:02:04;2.37;;;2.13;;
11151;SDS011;5630;49.342;10.802;2023-07-28T10:04:30;2.43;;;2.30;;
11151;SDS011;5630;49.342;10.802;2023-07-28T10:06:57;4.20;;;2.20;;
11151;SDS011;5630;49.342;10.802;2023-07-28T10:09:26;3.87;;;1.73;;
11151;SDS011;5630;49.342;10.802;2023-07-28T10:11:53;2.10;;;1.83;;
11151;SDS011;5630;49.342;10.802;2023-07-28T10:14:28;1.60;;;1.50;;
11151;SDS011;5630;49.342;10.802;2023-07-28T10:16:59;1.50;;;1.40;;
11151;SDS011;5630;49.342;10.802;2023-07-28T10:19:29;1.60;;;1.50;;
11151;SDS011;5630;49.342;10.802;2023-07-28T10:22:06;1.80;;;1.70;;
11151;SDS011;5630;49.342;10.802;2023-07-28T10:27:36;1.57;;;1.40;;
11151;SDS011;5630;49.342;10.802;2023-07-28T10:30:05;3.57;;;1.60;;
11151;SDS011;5630;49.342;10.802;2023-07-28T10:32:38;1.40;;;1.30;;
11151;SDS011;5630;49.342;10.802;2023-07-28T10:35:06;1.67;;;1.57;;
11151;SDS011;5630;49.342;10.802;2023-07-28T10:37:32;2.00;;;1.30;;
11151;SDS011;5630;49.342;10.802;2023-07-28T10:42:50;4.30;;;1.50;;
11151;SDS011;5630;49.342;10.802;2023-07-28T10:45:16;3.07;;;1.27;;
11151;SDS011;5630;49.342;10.802;2023-07-28T10:47:43;1.73;;;1.40;;
11151;SDS011;5630;49.342;10.802;2023-07-28T10:50:09;1.70;;;1.40;;
11151;SDS011;5630;49.342;10.802;2023-07-28T10:52:39;1.43;;;1.33;;
11151;SDS011;5630;49.342;10.802;2023-07-28T10:55:11;1.50;;;1.40;;
11151;SDS011;5630;49.342;10.802;2023-07-28T10:57:38;3.40;;;1.30;;
11151;SDS011;5630;49.342;10.802;2023-07-28T11:00:03;1.33;;;1.23;;
11151;SDS011;5630;49.342;10.802;2023-07-28T11:02:30;2.17;;;1.27;;
11151;SDS011;5630;49.342;10.802;2023-07-28T11:04:56;1.30;;;1.20;;
11151;SDS011;5630;49.342;10.802;2023-07-28T11:07:21;1.53;;;1.40;;
11151;SDS011;5630;49.342;10.802;2023-07-28T11:09:47;2.70;;;1.50;;
11151;SDS011;5630;49.342;10.802;2023-07-28T11:12:13;3.37;;;1.30;;
11151;SDS011;5630;49.342;10.802;2023-07-28T11:14:39;5.90;;;1.60;;
11151;SDS011;5630;49.342;10.802;2023-07-28T11:17:05;4.40;;;1.43;;
11151;SDS011;5630;49.342;10.802;2023-07-28T11:19:31;2.30;;;1.30;;
11151;SDS011;5630;49.342;10.802;2023-07-28T11:21:58;3.53;;;1.40;;
11151;SDS011;5630;49.342;10.802;2023-07-28T11:24:24;1.40;;;1.30;;
11151;SDS011;5630;49.342;10.802;2023-07-28T11:26:51;1.60;;;1.30;;
11151;SDS011;5630;49.342;10.802;2023-07-28T11:29:23;1.40;;;1.23;;
11151;SDS011;5630;49.342;10.802;2023-07-28T11:31:48;1.83;;;1.53;;
11151;SDS011;5630;49.342;10.802;2023-07-28T11:34:18;3.70;;;1.40;;
11151;SDS011;5630;49.342;10.802;2023-07-28T11:36:43;1.67;;;1.37;;
11151;SDS011;5630;49.342;10.802;2023-07-28T11:39:09;1.60;;;1.40;;
11151;SDS011;5630;49.342;10.802;2023-07-28T11:41:35;1.40;;;1.30;;
11151;SDS011;5630;49.342;10.802;2023-07-28T11:44:01;1.50;;;1.40;;
11151;SDS011;5630;49.342;10.802;2023-07-28T11:51:50;1.93;;;1.40;;
11151;SDS011;5630;49.342;10.802;2023-07-28T11:54:18;3.20;;;1.50;;
11151;SDS011;5630;49.342;10.802;2023-07-28T11:56:47;2.13;;;1.40;;
11151;SDS011;5630;49.342;10.802;2023-07-28T11:59:14;1.77;;;1.57;;
11151;SDS011;5630;49.342;10.802;2023-07-28T12:01:56;2.33;;;1.57;;
11151;SDS011;5630;49.342;10.802;2023-07-28T12:04:31;1.60;;;1.50;;
11151;SDS011;5630;49.342;10.802;2023-07-28T12:07:01;1.60;;;1.50;;
11151;SDS011;5630;49.342;10.802;2023-07-28T12:12:20;2.27;;;1.60;;
11151;SDS011;5630;49.342;10.802;2023-07-28T12:14:48;1.30;;;1.20;;
11151;SDS011;5630;49.342;10.802;2023-07-28T12:17:17;3.37;;;1.60;;
11151;SDS011;5630;49.342;10.802;2023-07-28T12:20:01;2.23;;;1.63;;
11151;SDS011;5630;49.342;10.802;2023-07-28T12:22:42;2.03;;;1.57;;
11151;SDS011;5630;49.342;10.802;2023-07-28T12:25:09;1.50;;;1.40;;
11151;SDS011;5630;49.342;10.802;2023-07-28T12:27:36;1.70;;;1.50;;
11151;SDS011;5630;49.342;10.802;2023-07-28T12:30:02;2.17;;;1.47;;
11151;SDS011;5630;49.342;10.802;2023-07-28T12:32:29;1.60;;;1.50;;
11151;SDS011;5630;49.342;10.802;2023-07-28T12:34:54;3.67;;;1.50;;
11151;SDS011;5630;49.342;10.802;2023-07-28T12:37:20;1.40;;;1.30;;
11151;SDS011;5630;49.342;10.802;2023-07-28T12:39:46;1.40;;;1.30;;
11151;SDS011;5630;49.342;10.802;2023-07-28T12:42:13;2.80;;;1.30;;
11151;SDS011;5630;49.342;10.802;2023-07-28T12:44:40;3.43;;;1.50;;
11151;SDS011;5630;49.342;10.802;2023-07-28T12:47:06;2.47;;;1.43;;
11151;SDS011;5630;49.342;10.802;2023-07-28T12:49:32;1.63;;;1.53;;
11151;SDS011;5630;49.342;10.802;2023-07-28T12:52:00;1.67;;;1.50;;
11151;SDS011;5630;49.342;10.802;2023-07-28T12:54:27;1.70;;;1.60;;
11151;SDS011;5630;49.342;10.802;2023-07-28T12:56:53;2.67;;;1.67;;
11151;SDS011;5630;49.342;10.802;2023-07-28T12:59:20;1.40;;;1.30;;
11151;SDS011;5630;49.342;10.802;2023-07-28T13:01:45;1.63;;;1.53;;
11151;SDS011;5630;49.342;10.802;2023-07-28T13:04:11;1.63;;;1.53;;
11151;SDS011;5630;49.342;10.802;2023-07-28T13:06:37;1.53;;;1.43;;
11151;SDS011;5630;49.342;10.802;2023-07-28T13:09:03;1.80;;;1.60;;
11151;SDS011;5630;49.342;10.802;2023-07-28T13:11:29;1.40;;;1.30;;
11151;SDS011;5630;49.342;10.802;2023-07-28T13:13:55;1.50;;;1.40;;
11151;SDS011;5630;49.342;10.802;2023-07-28T13:16:20;2.60;;;1.50;;
11151;SDS011;5630;49.342;10.802;2023-07-28T13:18:46;1.63;;;1.53;;
11151;SDS011;5630;49.342;10.802;2023-07-28T13:21:12;2.07;;;1.40;;
11151;SDS011;5630;49.342;10.802;2023-07-28T13:23:38;5.20;;;1.60;;
11151;SDS011;5630;49.342;10.802;2023-07-28T13:26:04;4.90;;;1.70;;
11151;SDS011;5630;49.342;10.802;2023-07-28T13:28:30;1.87;;;1.40;;
11151;SDS011;5630;49.342;10.802;2023-07-28T13:30:56;1.77;;;1.50;;
11151;SDS011;5630;49.342;10.802;2023-07-28T13:33:22;1.70;;;1.60;;
11151;SDS011;5630;49.342;10.802;2023-07-28T13:35:47;1.77;;;1.60;;
11151;SDS011;5630;49.342;10.802;2023-07-28T13:38:13;4.60;;;1.57;;
11151;SDS011;5630;49.342;10.802;2023-07-28T13:40:39;1.63;;;1.53;;
11151;SDS011;5630;49.342;10.802;2023-07-28T13:43:05;1.57;;;1.47;;
11151;SDS011;5630;49.342;10.802;2023-07-28T13:45:30;2.53;;;1.60;;
11151;SDS011;5630;49.342;10.802;2023-07-28T13:47:56;2.27;;;1.70;;
11151;SDS011;5630;49.342;10.802;2023-07-28T13:50:21;1.60;;;1.50;;
11151;SDS011;5630;49.342;10.802;2023-07-28T13:52:47;2.97;;;1.60;;
11151;SDS011;5630;49.342;10.802;2023-07-28T13:55:13;2.50;;;1.50;;
11151;SDS011;5630;49.342;10.802;2023-07-28T13:57:39;1.80;;;1.70;;
11151;SDS011;5630;49.342;10.802;2023-07-28T14:00:05;1.50;;;1.40;;
11151;SDS011;5630;49.342;10.802;2023-07-28T14:02:34;1.73;;;1.60;;
11151;SDS011;5630;49.342;10.802;2023-07-28T14:05:01;1.60;;;1.50;;
11151;SDS011;5630;49.342;10.802;2023-07-28T14:07:27;3.43;;;1.70;;
11151;SDS011;5630;49.342;10.802;2023-07-28T14:09:52;2.53;;;1.60;;
11151;SDS011;5630;49.342;10.802;2023-07-28T14:12:18;2.27;;;1.70;;
11151;SDS011;5630;49.342;10.802;2023-07-28T14:14:43;3.27;;;1.83;;
11151;SDS011;5630;49.342;10.802;2023-07-28T14:17:09;2.20;;;1.77;;
11151;SDS011;5630;49.342;10.802;2023-07-28T14:19:36;2.50;;;1.60;;
11151;SDS011;5630;49.342;10.802;2023-07-28T14:22:03;3.07;;;1.73;;
11151;SDS011;5630;49.342;10.802;2023-07-28T14:24:29;1.93;;;1.77;;
11151;SDS011;5630;49.342;10.802;2023-07-28T14:26:54;1.83;;;1.60;;
11151;SDS011;5630;49.342;10.802;2023-07-28T14:29:20;2.80;;;1.87;;
11151;SDS011;5630;49.342;10.802;2023-07-28T14:31:46;1.90;;;1.80;;
11151;SDS011;5630;49.342;10.802;2023-07-28T14:34:11;1.80;;;1.70;;
11151;SDS011;5630;49.342;10.802;2023-07-28T14:36:37;2.23;;;1.77;;
11151;SDS011;5630;49.342;10.802;2023-07-28T14:39:03;4.00;;;1.70;;
11151;SDS011;5630;49.342;10.802;2023-07-28T14:41:29;1.90;;;1.70;;
11151;SDS011;5630;49.342;10.802;2023-07-28T14:43:55;1.70;;;1.60;;
11151;SDS011;5630;49.342;10.802;2023-07-28T14:46:20;2.30;;;1.50;;
11151;SDS011;5630;49.342;10.802;2023-07-28T14:48:47;2.77;;;1.50;;
11151;SDS011;5630;49.342;10.802;2023-07-28T14:51:14;1.50;;;1.40;;
11151;SDS011;5630;49.342;10.802;2023-07-28T14:53:40;1.30;;;1.20;;
11151;SDS011;5630;49.342;10.802;2023-07-28T14:56:06;1.30;;;1.20;;
11151;SDS011;5630;49.342;10.802;2023-07-28T14:58:32;1.53;;;1.37;;